createdAt,value
2017-04-14T00:00:39.245Z,15.32
2017-04-14T00:01:39.155Z,15.07
2017-04-14T00:02:39.125Z,9.78
2017-04-14T00:03:39.023Z,14.72
2017-04-14T00:04:39.003Z,10.78
2017-04-14T00:05:38.883Z,14.30
2017-04-14T00:06:38.775Z,15.23
2017-04-14T00:07:38.675Z,10.17
2017-04-14T00:08:38.599Z,11.80
2017-04-14T00:09:38.531Z,11.03
2017-04-14T00:10:38.530Z,11.63
2017-04-14T00:11:38.458Z,13.88
2017-04-14T00:12:38.499Z,11.72
2017-04-14T00:13:38.429Z,13.85
2017-04-14T00:14:38.351Z,14.23
2017-04-14T00:15:38.307Z,13.00
2017-04-14T00:16:38.353Z,11.30
2017-04-14T00:17:38.339Z,11.75
2017-04-14T00:18:38.283Z,15.92
2017-04-14T00:19:38.271Z,11.65
2017-04-14T00:20:38.259Z,14.02
2017-04-14T00:21:38.173Z,12.27
2017-04-14T00:22:38.162Z,10.10
2017-04-14T00:23:38.115Z,14.35
2017-04-14T00:24:38.038Z,13.20
2017-04-14T00:25:38.023Z,9.42
2017-04-14T00:26:38.219Z,15.32
2017-04-14T00:27:38.024Z,14.57
2017-04-14T00:28:37.979Z,13.82
2017-04-14T00:29:38.650Z,12.68
2017-04-14T00:30:38.718Z,13.82
2017-04-14T00:31:39.471Z,11.50
2017-04-14T00:32:39.424Z,14.30
2017-04-14T00:33:39.319Z,9.30
2017-04-14T00:34:39.263Z,11.52
2017-04-14T00:35:39.203Z,11.37
2017-04-14T00:36:39.170Z,19.12
2017-04-14T00:37:39.080Z,15.22
2017-04-14T00:38:38.979Z,16.60
2017-04-14T00:39:39.675Z,12.55
2017-04-14T00:40:39.672Z,13.35
2017-04-14T00:41:39.667Z,11.58
2017-04-14T00:42:39.647Z,15.90
2017-04-14T00:43:39.541Z,12.18
2017-04-14T00:44:39.527Z,12.80
2017-04-14T00:45:39.439Z,13.30
2017-04-14T00:46:39.418Z,13.47
2017-04-14T00:47:39.369Z,13.42
2017-04-14T00:48:39.313Z,11.53
2017-04-14T00:49:39.259Z,17.62
2017-04-14T00:50:39.232Z,12.22
2017-04-14T00:51:39.279Z,14.67
2017-04-14T00:52:39.172Z,12.23
2017-04-14T00:53:39.118Z,13.70
2017-04-14T00:54:39.058Z,11.28
2017-04-14T00:55:38.991Z,13.33
2017-04-14T00:56:39.012Z,12.95
2017-04-14T00:57:38.912Z,16.38
2017-04-14T00:58:38.843Z,13.57
2017-04-14T00:59:38.783Z,10.10
2017-04-14T01:00:38.734Z,13.02
2017-04-14T01:01:38.743Z,13.37
2017-04-14T01:02:38.699Z,17.87
2017-04-14T01:03:38.639Z,14.57
2017-04-14T01:04:38.627Z,15.63
2017-04-14T01:05:38.658Z,16.27
2017-04-14T01:06:38.567Z,17.55
2017-04-14T01:07:38.548Z,13.07
2017-04-14T01:08:38.662Z,15.25
2017-04-14T01:09:38.634Z,18.75
2017-04-14T01:10:38.579Z,14.65
2017-04-14T01:11:38.522Z,13.85
2017-04-14T01:12:38.531Z,12.77
2017-04-14T01:13:38.539Z,15.03
2017-04-14T01:14:38.601Z,15.42
2017-04-14T01:15:39.257Z,15.97
2017-04-14T01:16:39.235Z,20.00
2017-04-14T01:17:39.530Z,19.05
2017-04-14T01:18:40.247Z,13.32
2017-04-14T01:19:40.954Z,17.13
2017-04-14T01:20:41.179Z,13.22
2017-04-14T01:21:41.738Z,16.17
2017-04-14T01:22:41.687Z,14.15
2017-04-14T01:23:41.671Z,18.38
2017-04-14T01:24:41.598Z,14.77
2017-04-14T01:25:41.548Z,14.35
2017-04-14T01:26:41.510Z,18.20
2017-04-14T01:27:41.467Z,16.12
2017-04-14T01:28:41.475Z,12.53
2017-04-14T01:29:41.410Z,19.55
2017-04-14T01:30:41.394Z,15.82
2017-04-14T01:31:41.351Z,19.60
2017-04-14T01:32:41.291Z,16.07
2017-04-14T01:33:41.296Z,17.87
2017-04-14T01:34:41.231Z,19.60
2017-04-14T01:35:41.455Z,15.82
2017-04-14T01:36:41.451Z,19.12
2017-04-14T01:37:41.378Z,22.02
2017-04-14T01:38:41.372Z,18.22
2017-04-14T01:39:41.311Z,17.80
2017-04-14T01:40:42.012Z,23.27
2017-04-14T01:41:42.004Z,20.35
2017-04-14T01:42:41.922Z,21.18
2017-04-14T01:43:41.900Z,20.55
2017-04-14T01:44:41.863Z,18.50
2017-04-14T01:45:42.535Z,20.85
2017-04-14T01:46:42.479Z,19.45
2017-04-14T01:47:43.159Z,16.67
2017-04-14T01:48:43.155Z,16.78
2017-04-14T01:49:43.143Z,22.57
2017-04-14T01:50:43.095Z,19.32
2017-04-14T01:51:43.071Z,22.70
2017-04-14T01:52:43.055Z,23.70
2017-04-14T01:53:43.065Z,28.65
2017-04-14T01:54:42.997Z,21.57
2017-04-14T01:55:42.930Z,20.58
2017-04-14T01:56:43.150Z,25.87
2017-04-14T01:57:42.960Z,29.42
2017-04-14T01:58:42.907Z,19.45
2017-04-14T01:59:42.863Z,21.72
2017-04-14T02:00:42.823Z,23.95
2017-04-14T02:01:42.765Z,24.72
2017-04-14T02:02:42.750Z,26.55
2017-04-14T02:03:42.723Z,22.50
2017-04-14T02:04:42.716Z,27.38
2017-04-14T02:05:43.426Z,23.57
2017-04-14T02:06:44.084Z,25.17
2017-04-14T02:07:44.063Z,22.52
2017-04-14T02:08:43.959Z,23.15
2017-04-14T02:09:43.840Z,24.22
2017-04-14T02:10:43.764Z,23.02
2017-04-14T02:11:43.654Z,23.40
2017-04-14T02:12:43.559Z,25.08
2017-04-14T02:13:43.517Z,24.42
2017-04-14T02:14:43.451Z,24.27
2017-04-14T02:15:43.431Z,25.00
2017-04-14T02:16:43.336Z,20.95
2017-04-14T02:17:43.220Z,25.07
2017-04-14T02:18:43.284Z,19.17
2017-04-14T02:19:43.508Z,23.28
2017-04-14T02:20:43.407Z,23.27
2017-04-14T02:21:43.454Z,24.68
2017-04-14T02:22:43.335Z,23.22
2017-04-14T02:23:43.940Z,26.58
2017-04-14T02:24:43.851Z,24.47
2017-04-14T02:25:43.788Z,24.98
2017-04-14T02:26:43.746Z,28.10
2017-04-14T02:27:43.674Z,22.72
2017-04-14T02:28:43.571Z,25.80
2017-04-14T02:29:43.487Z,23.35
2017-04-14T02:30:44.186Z,28.48
2017-04-14T02:31:44.235Z,22.95
2017-04-14T02:32:44.860Z,25.70
2017-04-14T02:33:44.768Z,26.17
2017-04-14T02:34:44.680Z,25.38
2017-04-14T02:35:44.644Z,27.03
2017-04-14T02:36:44.575Z,26.97
2017-04-14T02:37:44.483Z,34.20
2017-04-14T02:38:44.388Z,26.95
2017-04-14T02:39:44.263Z,31.72
2017-04-14T02:40:44.133Z,25.43
2017-04-14T02:41:44.200Z,27.12
2017-04-14T02:42:44.103Z,28.17
2017-04-14T02:43:43.982Z,29.12
2017-04-14T02:44:43.876Z,29.97
2017-04-14T02:45:43.787Z,27.27
2017-04-14T02:46:43.731Z,30.97
2017-04-14T02:47:43.655Z,26.30
2017-04-14T02:48:43.639Z,26.80
2017-04-14T02:49:43.540Z,29.98
2017-04-14T02:50:43.440Z,29.37
2017-04-14T02:51:43.398Z,28.12
2017-04-14T02:52:43.310Z,33.33
2017-04-14T02:53:43.209Z,23.97
2017-04-14T02:54:43.199Z,27.90
2017-04-14T02:55:43.096Z,26.12
2017-04-14T02:56:42.987Z,29.58
2017-04-14T02:57:42.875Z,29.55
2017-04-14T02:58:42.758Z,32.60
2017-04-14T02:59:42.652Z,31.50
2017-04-14T03:00:42.689Z,27.63
2017-04-14T03:01:43.454Z,33.23
2017-04-14T03:02:43.335Z,27.58
2017-04-14T03:03:43.240Z,31.73
2017-04-14T03:04:43.139Z,30.95
2017-04-14T03:05:43.058Z,28.73
2017-04-14T03:06:42.988Z,26.73
2017-04-14T03:07:42.879Z,33.45
2017-04-14T03:08:42.819Z,33.15
2017-04-14T03:09:42.746Z,34.92
2017-04-14T03:10:42.650Z,27.52
2017-04-14T03:11:42.598Z,31.00
2017-04-14T03:12:42.504Z,31.42
2017-04-14T03:13:42.419Z,32.08
2017-04-14T03:14:42.299Z,26.62
2017-04-14T03:15:42.229Z,27.90
2017-04-14T03:16:42.179Z,30.48
2017-04-14T03:17:42.071Z,34.13
2017-04-14T03:18:42.744Z,35.70
2017-04-14T03:19:43.447Z,28.73
2017-04-14T03:20:43.332Z,32.80
2017-04-14T03:21:43.238Z,31.33
2017-04-14T03:22:43.140Z,36.17
2017-04-14T03:23:43.055Z,28.97
2017-04-14T03:24:42.946Z,34.60
2017-04-14T03:25:42.806Z,29.13
2017-04-14T03:26:42.760Z,29.87
2017-04-14T03:27:42.710Z,28.67
2017-04-14T03:28:42.587Z,30.40
2017-04-14T03:29:42.500Z,31.12
2017-04-14T03:30:42.403Z,28.57
2017-04-14T03:31:42.307Z,33.53
2017-04-14T03:32:42.291Z,31.00
2017-04-14T03:33:42.163Z,28.30
2017-04-14T03:34:42.107Z,34.70
2017-04-14T03:35:41.972Z,23.87
2017-04-14T03:36:41.854Z,29.72
2017-04-14T03:37:41.819Z,31.23
2017-04-14T03:38:41.755Z,28.02
2017-04-14T03:39:41.759Z,30.02
2017-04-14T03:40:41.695Z,29.20
2017-04-14T03:41:42.050Z,29.97
2017-04-14T03:42:41.911Z,31.18
2017-04-14T03:43:41.831Z,28.65
2017-04-14T03:44:42.480Z,30.73
2017-04-14T03:45:42.399Z,26.18
2017-04-14T03:46:42.342Z,25.77
2017-04-14T03:47:42.221Z,28.25
2017-04-14T03:48:42.195Z,31.25
2017-04-14T03:49:42.060Z,25.37
2017-04-14T03:50:41.933Z,26.65
2017-04-14T03:51:41.856Z,27.73
2017-04-14T03:52:41.729Z,26.82
2017-04-14T03:53:41.815Z,27.95
2017-04-14T03:54:42.573Z,26.32
2017-04-14T03:55:42.449Z,30.27
2017-04-14T03:56:42.343Z,23.32
2017-04-14T03:57:42.264Z,31.62
2017-04-14T03:58:42.213Z,25.88
2017-04-14T03:59:42.141Z,28.63
2017-04-14T04:00:42.792Z,30.33
2017-04-14T04:01:42.682Z,27.08
2017-04-14T04:02:42.586Z,30.83
2017-04-14T04:03:42.486Z,28.83
2017-04-14T04:04:42.411Z,25.60
2017-04-14T04:05:42.358Z,30.83
2017-04-14T04:06:42.261Z,29.52
2017-04-14T04:07:42.169Z,30.37
2017-04-14T04:08:42.093Z,30.10
2017-04-14T04:09:42.696Z,31.90
2017-04-14T04:10:42.604Z,32.32
2017-04-14T04:11:42.802Z,29.02
2017-04-14T04:12:42.565Z,29.08
2017-04-14T04:13:42.470Z,29.80
2017-04-14T04:14:42.373Z,29.67
2017-04-14T04:15:42.366Z,35.22
2017-04-14T04:16:43.593Z,29.37
2017-04-14T04:17:44.237Z,27.12
2017-04-14T04:18:44.122Z,30.70
2017-04-14T04:19:44.765Z,31.13
2017-04-14T04:20:44.633Z,34.63
2017-04-14T04:21:45.272Z,33.88
2017-04-14T04:22:45.197Z,36.28
2017-04-14T04:23:45.087Z,31.23
2017-04-14T04:24:45.089Z,31.93
2017-04-14T04:25:45.709Z,27.47
2017-04-14T04:26:45.650Z,34.35
2017-04-14T04:27:45.569Z,32.87
2017-04-14T04:28:45.433Z,32.77
2017-04-14T04:29:45.309Z,35.47
2017-04-14T04:30:45.227Z,31.27
2017-04-14T04:31:50.576Z,31.25
2017-04-14T04:32:55.725Z,28.02
2017-04-14T04:34:00.949Z,32.57
2017-04-14T04:35:00.834Z,31.13
2017-04-14T04:36:00.727Z,29.32
2017-04-14T04:37:00.657Z,27.90
2017-04-14T04:38:00.536Z,29.30
2017-04-14T04:39:00.455Z,33.33
2017-04-14T04:40:00.333Z,30.37
2017-04-14T04:41:00.232Z,27.67
2017-04-14T04:42:00.137Z,27.28
2017-04-14T04:43:00.013Z,30.37
2017-04-14T04:43:59.949Z,32.35
2017-04-14T04:45:00.581Z,33.57
2017-04-14T04:46:00.469Z,31.40
2017-04-14T04:47:01.211Z,34.08
2017-04-14T04:48:01.825Z,36.97
2017-04-14T04:49:00.941Z,36.15
2017-04-14T04:50:00.821Z,33.85
2017-04-14T04:51:00.699Z,32.68
2017-04-14T04:52:00.644Z,35.83
2017-04-14T04:53:00.521Z,30.87
2017-04-14T04:54:01.144Z,34.67
2017-04-14T04:55:01.774Z,35.83
2017-04-14T04:56:01.630Z,32.83
2017-04-14T04:57:01.542Z,31.60
2017-04-14T04:58:01.472Z,31.63
2017-04-14T04:59:02.119Z,31.38
2017-04-14T05:00:01.981Z,30.92
2017-04-14T05:01:01.854Z,32.22
2017-04-14T05:02:01.730Z,31.68
2017-04-14T05:03:01.622Z,33.07
2017-04-14T05:04:01.513Z,30.70
2017-04-14T05:05:02.164Z,30.58
2017-04-14T05:06:02.053Z,31.03
2017-04-14T05:07:01.945Z,29.07
2017-04-14T05:08:01.881Z,32.48
2017-04-14T05:09:01.790Z,27.92
2017-04-14T05:10:01.713Z,31.18
2017-04-14T05:11:01.726Z,25.75
2017-04-14T05:12:01.630Z,30.07
2017-04-14T05:13:01.637Z,30.00
2017-04-14T05:14:01.656Z,32.75
2017-04-14T05:15:01.570Z,34.77
2017-04-14T05:16:01.455Z,37.92
2017-04-14T05:17:01.411Z,31.42
2017-04-14T05:18:02.049Z,35.38
2017-04-14T05:19:02.110Z,30.72
2017-04-14T05:20:02.265Z,31.68
2017-04-14T05:21:02.169Z,35.17
2017-04-14T05:22:02.110Z,30.80
2017-04-14T05:23:02.029Z,29.60
2017-04-14T05:24:01.985Z,30.53
2017-04-14T05:25:01.905Z,29.07
2017-04-14T05:26:01.837Z,33.18
2017-04-14T05:27:01.733Z,30.53
2017-04-14T05:28:01.609Z,28.45
2017-04-14T05:29:02.501Z,30.67
2017-04-14T05:30:02.427Z,29.68
2017-04-14T05:31:02.470Z,32.13
2017-04-14T05:32:02.377Z,32.88
2017-04-14T05:33:02.249Z,30.50
2017-04-14T05:34:02.230Z,29.37
2017-04-14T05:35:02.877Z,34.70
2017-04-14T05:36:02.810Z,30.85
2017-04-14T05:37:02.754Z,31.77
2017-04-14T05:38:03.382Z,30.48
2017-04-14T05:39:03.397Z,30.98
2017-04-14T05:40:04.041Z,28.85
2017-04-14T05:41:03.909Z,26.42
2017-04-14T05:42:03.845Z,31.58
2017-04-14T05:43:03.837Z,31.12
2017-04-14T05:44:04.517Z,34.22
2017-04-14T05:45:04.406Z,25.80
2017-04-14T05:46:04.584Z,28.97
2017-04-14T05:47:04.488Z,31.52
2017-04-14T05:48:04.397Z,30.95
2017-04-14T05:49:04.377Z,30.28
2017-04-14T05:50:05.048Z,30.05
2017-04-14T05:51:04.951Z,33.87
2017-04-14T05:52:04.833Z,28.02
2017-04-14T05:53:04.741Z,35.17
2017-04-14T05:54:04.661Z,26.72
2017-04-14T05:55:04.624Z,31.33
2017-04-14T05:56:04.641Z,31.23
2017-04-14T05:57:05.274Z,29.77
2017-04-14T05:58:05.171Z,29.93
2017-04-14T05:59:05.080Z,31.82
2017-04-14T06:00:05.001Z,29.53
2017-04-14T06:01:04.912Z,32.55
2017-04-14T06:02:04.797Z,34.45
2017-04-14T06:03:04.715Z,30.95
2017-04-14T06:04:04.664Z,30.87
2017-04-14T06:05:04.577Z,33.77
2017-04-14T06:06:05.484Z,28.55
2017-04-14T06:07:05.421Z,35.18
2017-04-14T06:08:05.329Z,28.82
2017-04-14T06:09:05.653Z,31.82
2017-04-14T06:10:05.569Z,31.83
2017-04-14T06:11:05.502Z,27.27
2017-04-14T06:12:05.414Z,28.38
2017-04-14T06:13:05.318Z,28.53
2017-04-14T06:14:05.221Z,35.53
2017-04-14T06:15:05.265Z,27.40
2017-04-14T06:16:05.906Z,32.08
2017-04-14T06:17:05.822Z,32.25
2017-04-14T06:18:05.702Z,33.37
2017-04-14T06:19:05.641Z,33.02
2017-04-14T06:20:05.605Z,28.45
2017-04-14T06:21:06.253Z,27.77
2017-04-14T06:22:06.247Z,27.48
2017-04-14T06:23:07.497Z,30.85
2017-04-14T06:24:07.401Z,31.20
2017-04-14T06:25:07.353Z,30.12
2017-04-14T06:26:07.300Z,31.00
2017-04-14T06:27:07.257Z,30.25
2017-04-14T06:28:07.197Z,29.12
2017-04-14T06:29:07.840Z,28.65
2017-04-14T06:30:07.905Z,32.48
2017-04-14T06:31:07.869Z,32.90
2017-04-14T06:32:07.800Z,28.58
2017-04-14T06:33:07.729Z,30.57
2017-04-14T06:34:07.714Z,29.83
2017-04-14T06:35:07.648Z,31.95
2017-04-14T06:36:08.373Z,29.68
2017-04-14T06:37:09.009Z,30.90
2017-04-14T06:38:09.646Z,31.25
2017-04-14T06:39:09.665Z,26.30
2017-04-14T06:40:09.832Z,28.30
2017-04-14T06:41:10.509Z,32.45
2017-04-14T06:42:10.418Z,32.92
2017-04-14T06:43:10.338Z,24.57
2017-04-14T06:44:10.216Z,30.70
2017-04-14T06:45:10.141Z,29.05
2017-04-14T06:46:10.044Z,30.18
2017-04-14T06:47:10.013Z,28.38
2017-04-14T06:48:09.949Z,30.82
2017-04-14T06:49:09.910Z,36.25
2017-04-14T06:50:10.570Z,24.68
2017-04-14T06:51:10.462Z,27.13
2017-04-14T06:52:10.378Z,31.08
2017-04-14T06:53:10.742Z,23.78
2017-04-14T06:54:11.417Z,34.08
2017-04-14T06:55:11.320Z,33.25
2017-04-14T06:56:11.264Z,32.42
2017-04-14T06:57:11.137Z,28.37
2017-04-14T06:58:11.072Z,34.20
2017-04-14T06:59:11.701Z,31.28
2017-04-14T07:00:12.379Z,30.50
2017-04-14T07:01:12.374Z,32.03
2017-04-14T07:02:12.352Z,25.67
2017-04-14T07:03:12.259Z,25.22
2017-04-14T07:04:12.181Z,30.95
2017-04-14T07:05:12.103Z,30.52
2017-04-14T07:06:12.156Z,26.05
2017-04-14T07:07:12.901Z,27.78
2017-04-14T07:08:13.010Z,28.42
2017-04-14T07:09:12.976Z,28.50
2017-04-14T07:10:12.881Z,27.87
2017-04-14T07:11:12.873Z,33.30
2017-04-14T07:12:12.782Z,25.98
2017-04-14T07:13:12.741Z,30.38
2017-04-14T07:14:12.654Z,27.93
2017-04-14T07:15:12.669Z,27.50
2017-04-14T07:16:12.708Z,24.52
2017-04-14T07:17:12.614Z,33.40
2017-04-14T07:18:12.513Z,28.27
2017-04-14T07:19:12.565Z,27.62
2017-04-14T07:20:12.505Z,25.22
2017-04-14T07:21:12.384Z,29.68
2017-04-14T07:22:12.273Z,26.72
2017-04-14T07:23:12.149Z,28.18
2017-04-14T07:24:12.130Z,28.52
2017-04-14T07:25:12.189Z,29.48
2017-04-14T07:26:12.209Z,30.50
2017-04-14T07:27:12.316Z,30.02
2017-04-14T07:28:13.040Z,25.18
2017-04-14T07:29:13.133Z,29.18
2017-04-14T07:30:13.297Z,28.80
2017-04-14T07:31:13.296Z,31.95
2017-04-14T07:32:13.319Z,29.65
2017-04-14T07:33:13.426Z,32.42
2017-04-14T07:34:13.323Z,27.83
2017-04-14T07:35:13.257Z,29.63
2017-04-14T07:36:13.201Z,28.55
2017-04-14T07:37:13.073Z,27.05
2017-04-14T07:38:12.986Z,33.63
2017-04-14T07:39:13.734Z,25.72
2017-04-14T07:40:13.645Z,28.15
2017-04-14T07:41:13.537Z,27.63
2017-04-14T07:42:13.471Z,27.35
2017-04-14T07:43:13.359Z,28.82
2017-04-14T07:44:13.281Z,28.53
2017-04-14T07:45:13.184Z,27.03
2017-04-14T07:46:13.066Z,27.45
2017-04-14T07:47:12.981Z,27.10
2017-04-14T07:48:12.871Z,28.77
2017-04-14T07:49:12.789Z,27.27
2017-04-14T07:50:12.824Z,28.52
2017-04-14T07:51:12.945Z,27.25
2017-04-14T07:52:12.865Z,28.08
2017-04-14T07:53:12.756Z,27.70
2017-04-14T07:54:12.669Z,29.58
2017-04-14T07:55:12.636Z,25.32
2017-04-14T07:56:12.710Z,26.28
2017-04-14T07:57:13.432Z,27.75
2017-04-14T07:58:13.409Z,24.18
2017-04-14T07:59:13.370Z,30.83
2017-04-14T08:00:13.325Z,29.97
2017-04-14T08:01:14.133Z,26.22
2017-04-14T08:02:14.033Z,30.15
2017-04-14T08:03:13.984Z,27.55
2017-04-14T08:04:14.593Z,31.20
2017-04-14T08:05:15.262Z,30.98
2017-04-14T08:06:15.253Z,27.33
2017-04-14T08:07:15.137Z,24.53
2017-04-14T08:08:15.847Z,23.32
2017-04-14T08:09:15.813Z,29.25
2017-04-14T08:10:15.773Z,33.05
2017-04-14T08:11:15.680Z,30.67
2017-04-14T08:12:15.562Z,23.73
2017-04-14T08:13:15.519Z,27.13
2017-04-14T08:14:15.522Z,27.60
2017-04-14T08:15:15.445Z,25.38
2017-04-14T08:16:15.376Z,26.60
2017-04-14T08:17:15.269Z,33.43
2017-04-14T08:18:15.129Z,23.68
2017-04-14T08:19:15.026Z,31.13
2017-04-14T08:20:14.925Z,27.65
2017-04-14T08:21:14.925Z,28.12
2017-04-14T08:22:15.581Z,27.72
2017-04-14T08:23:15.489Z,26.95
2017-04-14T08:24:15.432Z,26.05
2017-04-14T08:25:15.318Z,26.55
2017-04-14T08:26:15.182Z,28.35
2017-04-14T08:27:15.101Z,26.22
2017-04-14T08:28:15.006Z,27.18
2017-04-14T08:29:14.895Z,26.88
2017-04-14T08:30:14.808Z,28.12
2017-04-14T08:31:14.730Z,30.08
2017-04-14T08:32:15.102Z,27.35
2017-04-14T08:33:16.981Z,30.45
2017-04-14T08:34:16.881Z,33.52
2017-04-14T08:35:16.779Z,26.13
2017-04-14T08:36:16.701Z,29.28
2017-04-14T08:37:16.753Z,26.57
2017-04-14T08:38:17.520Z,32.32
2017-04-14T08:39:17.427Z,23.68
2017-04-14T08:40:17.303Z,26.58
2017-04-14T08:41:17.229Z,24.57
2017-04-14T08:42:17.248Z,29.42
2017-04-14T08:43:17.158Z,26.02
2017-04-14T08:44:17.104Z,26.88
2017-04-14T08:45:17.045Z,24.53
2017-04-14T08:46:16.939Z,28.98
2017-04-14T08:47:16.839Z,26.75
2017-04-14T08:48:16.808Z,32.87
2017-04-14T08:49:16.744Z,27.45
2017-04-14T08:50:17.405Z,26.45
2017-04-14T08:51:17.312Z,27.65
2017-04-14T08:52:17.220Z,24.72
2017-04-14T08:53:17.125Z,27.52
2017-04-14T08:54:17.048Z,27.73
2017-04-14T08:55:16.977Z,23.63
2017-04-14T08:56:17.593Z,29.88
2017-04-14T08:57:17.508Z,26.93
2017-04-14T08:58:17.748Z,27.12
2017-04-14T08:59:17.648Z,30.17
2017-04-14T09:00:17.585Z,26.32
2017-04-14T09:01:17.474Z,28.62
2017-04-14T09:02:17.397Z,24.47
2017-04-14T09:03:17.321Z,30.98
2017-04-14T09:04:17.240Z,26.75
2017-04-14T09:05:17.925Z,26.00
2017-04-14T09:06:17.829Z,29.22
2017-04-14T09:07:17.709Z,28.22
2017-04-14T09:08:17.607Z,26.15
2017-04-14T09:09:17.492Z,26.52
2017-04-14T09:10:18.215Z,19.48
2017-04-14T09:11:18.128Z,29.72
2017-04-14T09:12:18.028Z,27.95
2017-04-14T09:13:17.939Z,28.05
2017-04-14T09:14:18.608Z,24.58
2017-04-14T09:15:18.596Z,25.62
2017-04-14T09:16:18.507Z,24.80
2017-04-14T09:17:18.440Z,33.82
2017-04-14T09:18:18.377Z,30.98
2017-04-14T09:19:18.384Z,32.47
2017-04-14T09:20:19.510Z,29.15
2017-04-14T09:21:20.206Z,31.05
2017-04-14T09:22:20.171Z,29.27
2017-04-14T09:23:20.062Z,30.08
2017-04-14T09:24:20.037Z,32.53
2017-04-14T09:25:20.745Z,28.60
2017-04-14T09:26:20.653Z,29.30
2017-04-14T09:27:20.623Z,29.53
2017-04-14T09:28:20.515Z,27.83
2017-04-14T09:29:20.441Z,30.67
2017-04-14T09:30:20.389Z,28.72
2017-04-14T09:31:20.281Z,27.48
2017-04-14T09:32:20.939Z,30.50
2017-04-14T09:33:20.901Z,27.80
2017-04-14T09:34:20.818Z,30.73
2017-04-14T09:35:21.523Z,28.97
2017-04-14T09:36:21.457Z,28.40
2017-04-14T09:37:21.408Z,27.35
2017-04-14T09:38:21.313Z,31.98
2017-04-14T09:39:21.225Z,30.18
2017-04-14T09:40:21.243Z,29.72
2017-04-14T09:41:21.172Z,25.57
2017-04-14T09:42:21.840Z,26.42
2017-04-14T09:43:21.810Z,25.10
2017-04-14T09:44:22.439Z,28.02
2017-04-14T09:45:22.423Z,28.45
2017-04-14T09:46:22.429Z,24.83
2017-04-14T09:47:22.387Z,26.18
2017-04-14T09:48:22.401Z,25.30
2017-04-14T09:49:22.346Z,26.98
2017-04-14T09:50:22.411Z,28.45
2017-04-14T09:51:22.332Z,27.70
2017-04-14T09:52:22.241Z,28.08
2017-04-14T09:53:22.182Z,25.92
2017-04-14T09:54:22.985Z,32.40
2017-04-14T09:55:22.903Z,29.40
2017-04-14T09:56:23.545Z,24.77
2017-04-14T09:57:23.461Z,24.80
2017-04-14T09:58:23.383Z,28.02
2017-04-14T09:59:23.278Z,26.98
2017-04-14T10:00:23.225Z,27.78
2017-04-14T10:01:23.250Z,28.80
2017-04-14T10:02:23.199Z,24.73
2017-04-14T10:03:23.165Z,29.17
2017-04-14T10:04:23.828Z,26.80
2017-04-14T10:05:23.769Z,29.00
2017-04-14T10:06:23.669Z,31.73
2017-04-14T10:07:23.556Z,29.18
2017-04-14T10:08:23.453Z,28.77
2017-04-14T10:09:23.361Z,28.37
2017-04-14T10:10:23.301Z,26.65
2017-04-14T10:11:23.177Z,29.63
2017-04-14T10:12:23.086Z,28.47
2017-04-14T10:13:23.010Z,28.58
2017-04-14T10:14:22.917Z,32.05
2017-04-14T10:15:23.671Z,27.82
2017-04-14T10:16:23.533Z,30.07
2017-04-14T10:17:23.445Z,28.53
2017-04-14T10:18:23.371Z,29.82
2017-04-14T10:19:24.057Z,26.88
2017-04-14T10:20:23.985Z,25.92
2017-04-14T10:21:23.929Z,31.98
2017-04-14T10:22:23.857Z,28.47
2017-04-14T10:23:23.938Z,22.82
2017-04-14T10:24:23.860Z,26.67
2017-04-14T10:25:23.881Z,29.13
2017-04-14T10:26:23.849Z,26.82
2017-04-14T10:27:23.727Z,26.13
2017-04-14T10:28:23.670Z,24.58
2017-04-14T10:29:23.597Z,28.43
2017-04-14T10:30:23.530Z,24.90
2017-04-14T10:31:23.466Z,22.83
2017-04-14T10:32:23.392Z,25.22
2017-04-14T10:33:23.298Z,24.55
2017-04-14T10:34:23.185Z,23.15
2017-04-14T10:35:23.105Z,22.03
2017-04-14T10:36:23.025Z,21.58
2017-04-14T10:37:23.005Z,24.93
2017-04-14T10:38:22.926Z,25.73
2017-04-14T10:39:22.873Z,23.50
2017-04-14T10:40:22.792Z,24.35
2017-04-14T10:41:23.901Z,25.32
2017-04-14T10:42:23.827Z,23.08
2017-04-14T10:43:23.721Z,24.62
2017-04-14T10:44:23.594Z,28.17
2017-04-14T10:45:23.525Z,26.23
2017-04-14T10:46:23.746Z,25.05
2017-04-14T10:47:23.505Z,23.02
2017-04-14T10:48:24.425Z,24.32
2017-04-14T10:49:24.337Z,25.87
2017-04-14T10:50:24.338Z,26.30
2017-04-14T10:51:24.283Z,23.03
2017-04-14T10:52:24.191Z,24.83
2017-04-14T10:53:24.069Z,22.25
2017-04-14T10:54:23.995Z,26.05
2017-04-14T10:55:23.898Z,26.25
2017-04-14T10:56:23.810Z,28.62
2017-04-14T10:57:23.716Z,28.20
2017-04-14T10:58:23.604Z,27.13
2017-04-14T10:59:23.489Z,26.25
2017-04-14T11:00:23.410Z,26.90
2017-04-14T11:01:23.527Z,29.13
2017-04-14T11:02:23.538Z,24.25
2017-04-14T11:03:24.173Z,26.55
2017-04-14T11:04:24.865Z,23.58
2017-04-14T11:05:24.785Z,29.85
2017-04-14T11:06:24.727Z,27.20
2017-04-14T11:07:24.621Z,26.05
2017-04-14T11:08:25.273Z,28.27
2017-04-14T11:09:25.146Z,26.15
2017-04-14T11:10:25.070Z,39.97
2017-04-14T11:11:24.974Z,25.03
2017-04-14T11:12:24.909Z,26.62
2017-04-14T11:13:24.876Z,27.78
2017-04-14T11:14:24.776Z,25.17
2017-04-14T11:15:24.669Z,29.82
2017-04-14T11:16:25.331Z,25.88
2017-04-14T11:17:25.281Z,26.32
2017-04-14T11:18:25.197Z,25.80
2017-04-14T11:19:25.835Z,25.37
2017-04-14T11:20:25.816Z,32.12
2017-04-14T11:21:25.699Z,26.37
2017-04-14T11:22:25.634Z,28.60
2017-04-14T11:23:25.545Z,26.72
2017-04-14T11:24:25.461Z,27.60
2017-04-14T11:25:25.357Z,24.98
2017-04-14T11:26:25.237Z,27.13
2017-04-14T11:27:25.140Z,28.03
2017-04-14T11:28:25.077Z,25.77
2017-04-14T11:29:25.013Z,26.92
2017-04-14T11:30:24.905Z,25.68
2017-04-14T11:31:24.842Z,24.07
2017-04-14T11:32:24.718Z,26.22
2017-04-14T11:33:24.804Z,23.88
2017-04-14T11:34:24.726Z,27.12
2017-04-14T11:35:24.633Z,26.88
2017-04-14T11:36:24.524Z,28.90
2017-04-14T11:37:24.445Z,26.48
2017-04-14T11:38:24.410Z,24.35
2017-04-14T11:39:24.305Z,24.63
2017-04-14T11:40:24.185Z,25.63
2017-04-14T11:41:24.074Z,25.25
2017-04-14T11:42:23.982Z,25.07
2017-04-14T11:43:23.956Z,25.35
2017-04-14T11:44:23.890Z,25.63
2017-04-14T11:45:23.808Z,25.80
2017-04-14T11:46:23.701Z,23.15
2017-04-14T11:47:23.730Z,26.70
2017-04-14T11:48:23.682Z,24.48
2017-04-14T11:49:23.607Z,23.52
2017-04-14T11:50:23.553Z,22.07
2017-04-14T11:51:23.463Z,23.85
2017-04-14T11:52:23.365Z,23.48
2017-04-14T11:53:23.258Z,21.93
2017-04-14T11:54:23.534Z,23.37
2017-04-14T11:55:23.518Z,22.12
2017-04-14T11:56:23.414Z,20.68
2017-04-14T11:57:24.112Z,20.30
2017-04-14T11:58:24.082Z,23.47
2017-04-14T11:59:24.037Z,19.45
2017-04-14T12:00:23.949Z,22.13
2017-04-14T12:01:23.849Z,20.68
2017-04-14T12:02:24.534Z,27.03
2017-04-14T12:03:24.749Z,19.57
2017-04-14T12:04:25.206Z,23.33
2017-04-14T12:05:25.190Z,22.10
2017-04-14T12:06:25.893Z,23.23
2017-04-14T12:07:25.836Z,25.67
2017-04-14T12:08:25.822Z,21.52
2017-04-14T12:09:25.821Z,21.98
2017-04-14T12:10:25.769Z,22.87
2017-04-14T12:11:25.770Z,25.17
2017-04-14T12:12:25.745Z,20.42
2017-04-14T12:13:25.689Z,20.93
2017-04-14T12:14:25.673Z,22.82
2017-04-14T12:15:25.633Z,22.05
2017-04-14T12:16:25.537Z,23.48
2017-04-14T12:17:25.610Z,23.05
2017-04-14T12:18:25.522Z,22.43
2017-04-14T12:19:25.482Z,24.00
2017-04-14T12:20:25.384Z,21.62
2017-04-14T12:21:25.296Z,22.10
2017-04-14T12:22:25.243Z,22.75
2017-04-14T12:23:25.243Z,22.93
2017-04-14T12:24:25.883Z,21.55
2017-04-14T12:25:25.838Z,23.83
2017-04-14T12:26:25.817Z,22.95
2017-04-14T12:27:25.757Z,20.95
2017-04-14T12:28:25.687Z,24.75
2017-04-14T12:29:25.598Z,21.40
2017-04-14T12:30:25.537Z,23.52
2017-04-14T12:31:25.425Z,23.00
2017-04-14T12:32:25.304Z,22.02
2017-04-14T12:33:25.219Z,24.15
2017-04-14T12:34:25.161Z,23.35
2017-04-14T12:35:25.124Z,25.85
2017-04-14T12:36:25.106Z,21.95
2017-04-14T12:37:25.051Z,27.25
2017-04-14T12:38:25.734Z,23.38
2017-04-14T12:39:26.449Z,21.45
2017-04-14T12:40:26.437Z,22.12
2017-04-14T12:41:26.342Z,24.38
2017-04-14T12:42:26.290Z,22.62
2017-04-14T12:43:26.212Z,23.52
2017-04-14T12:44:26.111Z,24.85
2017-04-14T12:45:26.034Z,24.38
2017-04-14T12:46:25.953Z,24.13
2017-04-14T12:47:25.889Z,22.42
2017-04-14T12:48:25.837Z,22.55
2017-04-14T12:49:25.735Z,24.72
2017-04-14T12:50:25.753Z,24.52
2017-04-14T12:51:25.684Z,27.98
2017-04-14T12:52:25.741Z,25.98
2017-04-14T12:53:26.426Z,21.40